Soledade de Minas, Brazil
Current Conditions -  °F | °C
As of 2:00 PM on Friday 19 Dec 2014 (Local Time) from SBGW Reporting Station
Scattered Clouds Scattered Clouds  
Wind Chill: 90°   Ceiling: Unl
Heat Index: 93°   Visibility: 6mi
Dew Point: 68°   Wind: 3mph
Humidity: 49%   Direction: NA
Pressure: 29.83"   Gusts: NA
Location:  22.06°S, 45.04°W
Report Text: SBGW 191600Z VRB03KT 9999 SCT027 FEW030TCU 32/20 Q1010
Loading
Personal Weather Stations






























Interactive Weather Map New forecast layout! Learn more

10-Day Weather Forecast

Advertisements
Track Severe Weather on mobile